Terminal Aerodrome Forecast
Issued by NWS

Home | Current Version | Previous Version | Text Only | Print | Product List | Glossary On
Versions: 1 2 3 4 5 6 7 8 9 10 11 12 13 14 15 16 17 18 19 20 21 22
000
FTUS46 KMFR 221642 AAB
TAFRBG
TAF AMD
KRBG 221642Z 2217/2312 VRB05KT 3SM -RA FEW005 SCT012 OVC025
      TEMPO 2217/2220 1SM RA BR FEW005 BKN012 OVC020
     FM222000 19005KT 4SM -RA SCT012 BKN020 OVC030
     FM222200 18005KT P6SM -SHRA BKN020 OVC040
     FM230700 00000KT 4SM BR OVC015
     FM230900 12001KT 4SM BR OVC007=

USA.gov is the U.S. government's official web portal to all federal, state and local government web resources and services.